sensor_id;sensor_type;location;lat;lon;timestamp;P1;durP1;ratioP1;P2;durP2;ratioP2
12707;SDS011;6418;50.824;4.718;2023-04-24T00:01:05;30.90;;;16.50;;
12707;SDS011;6418;50.824;4.718;2023-04-24T00:03:34;26.13;;;17.07;;
12707;SDS011;6418;50.824;4.718;2023-04-24T00:06:01;28.13;;;16.83;;
12707;SDS011;6418;50.824;4.718;2023-04-24T00:08:28;28.57;;;16.50;;
12707;SDS011;6418;50.824;4.718;2023-04-24T00:10:55;29.20;;;16.53;;
12707;SDS011;6418;50.824;4.718;2023-04-24T00:13:24;31.97;;;17.13;;
12707;SDS011;6418;50.824;4.718;2023-04-24T00:15:51;25.63;;;16.13;;
12707;SDS011;6418;50.824;4.718;2023-04-24T00:18:18;28.80;;;17.43;;
12707;SDS011;6418;50.824;4.718;2023-04-24T00:20:45;30.80;;;16.73;;
12707;SDS011;6418;50.824;4.718;2023-04-24T00:23:12;31.13;;;16.60;;
12707;SDS011;6418;50.824;4.718;2023-04-24T00:25:39;25.80;;;16.33;;
12707;SDS011;6418;50.824;4.718;2023-04-24T00:28:06;30.47;;;17.40;;
12707;SDS011;6418;50.824;4.718;2023-04-24T00:30:35;25.53;;;15.87;;
12707;SDS011;6418;50.824;4.718;2023-04-24T00:33:02;31.27;;;16.97;;
12707;SDS011;6418;50.824;4.718;2023-04-24T00:35:29;30.87;;;16.93;;
12707;SDS011;6418;50.824;4.718;2023-04-24T00:37:56;30.00;;;17.83;;
12707;SDS011;6418;50.824;4.718;2023-04-24T00:40:23;26.73;;;16.33;;
12707;SDS011;6418;50.824;4.718;2023-04-24T00:42:50;28.10;;;17.70;;
12707;SDS011;6418;50.824;4.718;2023-04-24T00:45:17;27.80;;;16.87;;
12707;SDS011;6418;50.824;4.718;2023-04-24T00:47:45;27.63;;;15.97;;
12707;SDS011;6418;50.824;4.718;2023-04-24T00:50:14;27.00;;;16.93;;
12707;SDS011;6418;50.824;4.718;2023-04-24T00:52:42;27.97;;;16.53;;
12707;SDS011;6418;50.824;4.718;2023-04-24T00:55:09;26.30;;;16.47;;
12707;SDS011;6418;50.824;4.718;2023-04-24T00:57:36;29.60;;;18.43;;
12707;SDS011;6418;50.824;4.718;2023-04-24T01:00:04;29.87;;;18.23;;
12707;SDS011;6418;50.824;4.718;2023-04-24T01:02:36;30.70;;;17.40;;
12707;SDS011;6418;50.824;4.718;2023-04-24T01:05:10;30.27;;;15.43;;
12707;SDS011;6418;50.824;4.718;2023-04-24T01:07:38;28.73;;;16.63;;
12707;SDS011;6418;50.824;4.718;2023-04-24T01:10:09;29.93;;;16.93;;
12707;SDS011;6418;50.824;4.718;2023-04-24T01:12:36;24.37;;;15.97;;
12707;SDS011;6418;50.824;4.718;2023-04-24T01:15:04;26.63;;;16.57;;
12707;SDS011;6418;50.824;4.718;2023-04-24T01:17:31;27.80;;;16.20;;
12707;SDS011;6418;50.824;4.718;2023-04-24T01:19:59;24.73;;;16.97;;
12707;SDS011;6418;50.824;4.718;2023-04-24T01:22:32;28.43;;;17.10;;
12707;SDS011;6418;50.824;4.718;2023-04-24T01:24:59;25.17;;;16.50;;
12707;SDS011;6418;50.824;4.718;2023-04-24T01:27:26;28.67;;;17.20;;
12707;SDS011;6418;50.824;4.718;2023-04-24T01:29:53;30.63;;;18.47;;
12707;SDS011;6418;50.824;4.718;2023-04-24T01:32:21;29.73;;;19.13;;
12707;SDS011;6418;50.824;4.718;2023-04-24T01:34:48;34.67;;;19.53;;
12707;SDS011;6418;50.824;4.718;2023-04-24T01:37:16;38.73;;;20.47;;
12707;SDS011;6418;50.824;4.718;2023-04-24T01:39:45;33.13;;;21.23;;
12707;SDS011;6418;50.824;4.718;2023-04-24T01:42:12;33.57;;;21.97;;
12707;SDS011;6418;50.824;4.718;2023-04-24T01:44:39;38.10;;;22.53;;
12707;SDS011;6418;50.824;4.718;2023-04-24T01:47:07;37.90;;;22.27;;
12707;SDS011;6418;50.824;4.718;2023-04-24T01:49:34;39.50;;;21.53;;
12707;SDS011;6418;50.824;4.718;2023-04-24T01:52:01;38.00;;;21.90;;
12707;SDS011;6418;50.824;4.718;2023-04-24T01:54:28;33.33;;;21.10;;
12707;SDS011;6418;50.824;4.718;2023-04-24T01:56:56;34.93;;;20.77;;
12707;SDS011;6418;50.824;4.718;2023-04-24T01:59:23;34.77;;;21.00;;
12707;SDS011;6418;50.824;4.718;2023-04-24T02:01:54;33.60;;;21.37;;
12707;SDS011;6418;50.824;4.718;2023-04-24T02:04:20;36.63;;;21.00;;
12707;SDS011;6418;50.824;4.718;2023-04-24T02:06:47;35.33;;;21.57;;
12707;SDS011;6418;50.824;4.718;2023-04-24T02:09:14;32.03;;;20.93;;
12707;SDS011;6418;50.824;4.718;2023-04-24T02:11:41;37.13;;;21.97;;
12707;SDS011;6418;50.824;4.718;2023-04-24T02:14:10;37.90;;;22.07;;
12707;SDS011;6418;50.824;4.718;2023-04-24T02:16:37;39.43;;;22.53;;
12707;SDS011;6418;50.824;4.718;2023-04-24T02:19:04;38.43;;;24.50;;
12707;SDS011;6418;50.824;4.718;2023-04-24T02:21:31;37.00;;;24.73;;
12707;SDS011;6418;50.824;4.718;2023-04-24T02:23:58;44.87;;;26.80;;
12707;SDS011;6418;50.824;4.718;2023-04-24T02:26:25;41.93;;;25.57;;
12707;SDS011;6418;50.824;4.718;2023-04-24T02:28:52;44.60;;;27.23;;
12707;SDS011;6418;50.824;4.718;2023-04-24T02:31:20;45.97;;;28.27;;
12707;SDS011;6418;50.824;4.718;2023-04-24T02:33:47;43.43;;;27.70;;
12707;SDS011;6418;50.824;4.718;2023-04-24T02:36:15;46.43;;;29.17;;
12707;SDS011;6418;50.824;4.718;2023-04-24T02:38:42;46.70;;;28.07;;
12707;SDS011;6418;50.824;4.718;2023-04-24T02:41:09;44.63;;;27.80;;
12707;SDS011;6418;50.824;4.718;2023-04-24T02:43:36;43.60;;;27.77;;
12707;SDS011;6418;50.824;4.718;2023-04-24T02:46:03;43.90;;;28.53;;
12707;SDS011;6418;50.824;4.718;2023-04-24T02:48:31;43.60;;;29.33;;
12707;SDS011;6418;50.824;4.718;2023-04-24T02:50:58;42.23;;;27.80;;
12707;SDS011;6418;50.824;4.718;2023-04-24T02:53:25;46.00;;;27.57;;
12707;SDS011;6418;50.824;4.718;2023-04-24T02:55:52;42.10;;;26.87;;
12707;SDS011;6418;50.824;4.718;2023-04-24T02:58:19;48.53;;;27.40;;
12707;SDS011;6418;50.824;4.718;2023-04-24T03:00:46;39.57;;;25.47;;
12707;SDS011;6418;50.824;4.718;2023-04-24T03:03:13;41.67;;;26.00;;
12707;SDS011;6418;50.824;4.718;2023-04-24T03:05:41;37.73;;;24.77;;
12707;SDS011;6418;50.824;4.718;2023-04-24T03:08:08;40.87;;;23.87;;
12707;SDS011;6418;50.824;4.718;2023-04-24T03:10:36;39.13;;;24.13;;
12707;SDS011;6418;50.824;4.718;2023-04-24T03:13:03;39.73;;;23.23;;
12707;SDS011;6418;50.824;4.718;2023-04-24T03:15:30;40.27;;;23.80;;
12707;SDS011;6418;50.824;4.718;2023-04-24T03:17:57;36.17;;;22.97;;
12707;SDS011;6418;50.824;4.718;2023-04-24T03:20:25;35.03;;;23.17;;
12707;SDS011;6418;50.824;4.718;2023-04-24T03:22:54;37.53;;;22.53;;
12707;SDS011;6418;50.824;4.718;2023-04-24T03:25:21;40.07;;;22.63;;
12707;SDS011;6418;50.824;4.718;2023-04-24T03:27:50;34.60;;;21.90;;
12707;SDS011;6418;50.824;4.718;2023-04-24T03:30:17;36.00;;;22.10;;
12707;SDS011;6418;50.824;4.718;2023-04-24T03:32:44;35.73;;;20.83;;
12707;SDS011;6418;50.824;4.718;2023-04-24T03:35:11;40.20;;;22.70;;
12707;SDS011;6418;50.824;4.718;2023-04-24T03:37:38;36.07;;;21.97;;
12707;SDS011;6418;50.824;4.718;2023-04-24T03:40:08;36.20;;;21.70;;
12707;SDS011;6418;50.824;4.718;2023-04-24T03:42:35;37.17;;;22.10;;
12707;SDS011;6418;50.824;4.718;2023-04-24T03:45:02;37.87;;;21.43;;
12707;SDS011;6418;50.824;4.718;2023-04-24T03:47:30;34.80;;;20.47;;
12707;SDS011;6418;50.824;4.718;2023-04-24T03:49:57;37.20;;;22.07;;
12707;SDS011;6418;50.824;4.718;2023-04-24T03:52:23;38.53;;;21.57;;
12707;SDS011;6418;50.824;4.718;2023-04-24T03:54:50;38.33;;;22.93;;
12707;SDS011;6418;50.824;4.718;2023-04-24T03:57:19;39.50;;;22.77;;
12707;SDS011;6418;50.824;4.718;2023-04-24T03:59:46;36.60;;;22.87;;
12707;SDS011;6418;50.824;4.718;2023-04-24T04:02:13;35.53;;;21.13;;
12707;SDS011;6418;50.824;4.718;2023-04-24T04:04:40;32.37;;;20.07;;
12707;SDS011;6418;50.824;4.718;2023-04-24T04:07:07;37.13;;;20.33;;
12707;SDS011;6418;50.824;4.718;2023-04-24T04:09:34;36.03;;;21.97;;
12707;SDS011;6418;50.824;4.718;2023-04-24T04:12:01;32.20;;;18.30;;
12707;SDS011;6418;50.824;4.718;2023-04-24T04:14:29;32.40;;;20.47;;
12707;SDS011;6418;50.824;4.718;2023-04-24T04:16:56;32.60;;;19.03;;
12707;SDS011;6418;50.824;4.718;2023-04-24T04:19:23;30.83;;;18.00;;
12707;SDS011;6418;50.824;4.718;2023-04-24T04:21:50;30.23;;;16.30;;
12707;SDS011;6418;50.824;4.718;2023-04-24T04:24:18;30.07;;;15.57;;
12707;SDS011;6418;50.824;4.718;2023-04-24T04:26:47;26.37;;;16.73;;
12707;SDS011;6418;50.824;4.718;2023-04-24T04:29:16;32.30;;;16.67;;
12707;SDS011;6418;50.824;4.718;2023-04-24T04:31:44;29.63;;;16.00;;
12707;SDS011;6418;50.824;4.718;2023-04-24T04:34:11;28.40;;;15.47;;
12707;SDS011;6418;50.824;4.718;2023-04-24T04:36:39;24.93;;;14.17;;
12707;SDS011;6418;50.824;4.718;2023-04-24T04:39:06;24.10;;;14.10;;
12707;SDS011;6418;50.824;4.718;2023-04-24T04:41:33;22.53;;;14.10;;
12707;SDS011;6418;50.824;4.718;2023-04-24T04:44:01;24.23;;;13.90;;
12707;SDS011;6418;50.824;4.718;2023-04-24T04:46:29;26.00;;;14.67;;
12707;SDS011;6418;50.824;4.718;2023-04-24T04:49:00;26.53;;;15.43;;
12707;SDS011;6418;50.824;4.718;2023-04-24T04:51:27;26.10;;;14.37;;
12707;SDS011;6418;50.824;4.718;2023-04-24T04:53:55;23.70;;;14.10;;
12707;SDS011;6418;50.824;4.718;2023-04-24T04:56:22;24.23;;;14.17;;
12707;SDS011;6418;50.824;4.718;2023-04-24T04:58:49;27.37;;;15.17;;
12707;SDS011;6418;50.824;4.718;2023-04-24T05:01:16;25.93;;;16.10;;
12707;SDS011;6418;50.824;4.718;2023-04-24T05:03:43;25.53;;;15.20;;
12707;SDS011;6418;50.824;4.718;2023-04-24T05:06:11;25.43;;;14.63;;
12707;SDS011;6418;50.824;4.718;2023-04-24T05:08:38;23.90;;;14.17;;
12707;SDS011;6418;50.824;4.718;2023-04-24T05:11:06;25.80;;;13.67;;
12707;SDS011;6418;50.824;4.718;2023-04-24T05:13:33;21.13;;;13.23;;
12707;SDS011;6418;50.824;4.718;2023-04-24T05:16:00;24.03;;;15.07;;
12707;SDS011;6418;50.824;4.718;2023-04-24T05:18:27;24.13;;;12.87;;
12707;SDS011;6418;50.824;4.718;2023-04-24T05:20:54;27.93;;;14.60;;
12707;SDS011;6418;50.824;4.718;2023-04-24T05:23:23;27.77;;;16.30;;
12707;SDS011;6418;50.824;4.718;2023-04-24T05:25:50;25.13;;;14.50;;
12707;SDS011;6418;50.824;4.718;2023-04-24T05:28:17;27.20;;;16.40;;
12707;SDS011;6418;50.824;4.718;2023-04-24T05:30:44;29.77;;;17.10;;
12707;SDS011;6418;50.824;4.718;2023-04-24T05:33:11;28.77;;;15.87;;
12707;SDS011;6418;50.824;4.718;2023-04-24T05:35:39;26.57;;;14.63;;
12707;SDS011;6418;50.824;4.718;2023-04-24T05:38:10;23.83;;;14.17;;
12707;SDS011;6418;50.824;4.718;2023-04-24T05:40:39;30.97;;;16.33;;
12707;SDS011;6418;50.824;4.718;2023-04-24T05:43:06;27.47;;;17.50;;
12707;SDS011;6418;50.824;4.718;2023-04-24T05:45:33;32.40;;;17.20;;
12707;SDS011;6418;50.824;4.718;2023-04-24T05:48:01;33.23;;;17.93;;
12707;SDS011;6418;50.824;4.718;2023-04-24T05:50:28;34.73;;;18.13;;
12707;SDS011;6418;50.824;4.718;2023-04-24T05:52:55;35.73;;;18.40;;
12707;SDS011;6418;50.824;4.718;2023-04-24T05:55:23;35.40;;;19.03;;
12707;SDS011;6418;50.824;4.718;2023-04-24T05:57:51;36.27;;;19.30;;
12707;SDS011;6418;50.824;4.718;2023-04-24T06:00:19;37.70;;;19.03;;
12707;SDS011;6418;50.824;4.718;2023-04-24T06:02:46;36.23;;;20.13;;
12707;SDS011;6418;50.824;4.718;2023-04-24T06:05:13;35.63;;;18.50;;
12707;SDS011;6418;50.824;4.718;2023-04-24T06:07:41;38.33;;;18.73;;
12707;SDS011;6418;50.824;4.718;2023-04-24T06:10:08;37.20;;;19.67;;
12707;SDS011;6418;50.824;4.718;2023-04-24T06:12:36;33.57;;;20.03;;
12707;SDS011;6418;50.824;4.718;2023-04-24T06:15:05;37.37;;;18.97;;
12707;SDS011;6418;50.824;4.718;2023-04-24T06:17:33;44.07;;;21.03;;
12707;SDS011;6418;50.824;4.718;2023-04-24T06:20:00;34.70;;;20.30;;
12707;SDS011;6418;50.824;4.718;2023-04-24T06:22:29;38.67;;;20.00;;
12707;SDS011;6418;50.824;4.718;2023-04-24T06:24:56;39.60;;;21.33;;
12707;SDS011;6418;50.824;4.718;2023-04-24T06:27:23;40.63;;;20.40;;
12707;SDS011;6418;50.824;4.718;2023-04-24T06:29:50;46.40;;;22.27;;
12707;SDS011;6418;50.824;4.718;2023-04-24T06:32:21;39.23;;;19.93;;
12707;SDS011;6418;50.824;4.718;2023-04-24T06:34:48;46.33;;;23.27;;
12707;SDS011;6418;50.824;4.718;2023-04-24T06:37:15;45.60;;;23.33;;
12707;SDS011;6418;50.824;4.718;2023-04-24T06:39:42;43.10;;;21.87;;
12707;SDS011;6418;50.824;4.718;2023-04-24T06:42:12;40.50;;;20.23;;
12707;SDS011;6418;50.824;4.718;2023-04-24T06:44:39;46.47;;;22.00;;
12707;SDS011;6418;50.824;4.718;2023-04-24T06:47:07;42.23;;;23.40;;
12707;SDS011;6418;50.824;4.718;2023-04-24T06:49:36;45.73;;;22.80;;
12707;SDS011;6418;50.824;4.718;2023-04-24T06:52:03;42.00;;;23.13;;
12707;SDS011;6418;50.824;4.718;2023-04-24T06:54:30;44.93;;;26.13;;
12707;SDS011;6418;50.824;4.718;2023-04-24T06:56:58;43.13;;;23.03;;
12707;SDS011;6418;50.824;4.718;2023-04-24T06:59:25;45.60;;;23.13;;
12707;SDS011;6418;50.824;4.718;2023-04-24T07:01:52;50.23;;;23.50;;
12707;SDS011;6418;50.824;4.718;2023-04-24T07:04:20;44.10;;;24.73;;
12707;SDS011;6418;50.824;4.718;2023-04-24T07:06:48;46.20;;;26.63;;
12707;SDS011;6418;50.824;4.718;2023-04-24T07:09:16;48.70;;;26.63;;
12707;SDS011;6418;50.824;4.718;2023-04-24T07:11:44;49.83;;;25.17;;
12707;SDS011;6418;50.824;4.718;2023-04-24T07:14:11;51.93;;;27.87;;
12707;SDS011;6418;50.824;4.718;2023-04-24T07:16:38;48.97;;;26.03;;
12707;SDS011;6418;50.824;4.718;2023-04-24T07:19:05;47.57;;;24.83;;
12707;SDS011;6418;50.824;4.718;2023-04-24T07:21:32;49.77;;;26.17;;
12707;SDS011;6418;50.824;4.718;2023-04-24T07:24:01;61.57;;;30.60;;
12707;SDS011;6418;50.824;4.718;2023-04-24T07:26:28;61.17;;;29.13;;
12707;SDS011;6418;50.824;4.718;2023-04-24T07:28:56;50.20;;;26.90;;
12707;SDS011;6418;50.824;4.718;2023-04-24T07:31:23;57.27;;;28.03;;
12707;SDS011;6418;50.824;4.718;2023-04-24T07:33:50;61.20;;;29.50;;
12707;SDS011;6418;50.824;4.718;2023-04-24T07:36:17;58.23;;;28.53;;
12707;SDS011;6418;50.824;4.718;2023-04-24T07:38:45;63.30;;;28.17;;
12707;SDS011;6418;50.824;4.718;2023-04-24T07:41:13;53.83;;;27.47;;
12707;SDS011;6418;50.824;4.718;2023-04-24T07:43:40;55.43;;;25.90;;
12707;SDS011;6418;50.824;4.718;2023-04-24T07:46:08;51.87;;;26.70;;
12707;SDS011;6418;50.824;4.718;2023-04-24T07:48:35;48.77;;;25.53;;
12707;SDS011;6418;50.824;4.718;2023-04-24T07:51:02;45.83;;;24.77;;
12707;SDS011;6418;50.824;4.718;2023-04-24T07:53:30;48.60;;;24.87;;
12707;SDS011;6418;50.824;4.718;2023-04-24T07:55:57;44.80;;;24.03;;
12707;SDS011;6418;50.824;4.718;2023-04-24T07:58:26;47.77;;;25.10;;
12707;SDS011;6418;50.824;4.718;2023-04-24T08:00:53;43.03;;;23.17;;
12707;SDS011;6418;50.824;4.718;2023-04-24T08:03:20;41.37;;;23.47;;
12707;SDS011;6418;50.824;4.718;2023-04-24T08:05:47;46.37;;;22.40;;
12707;SDS011;6418;50.824;4.718;2023-04-24T08:08:16;43.63;;;21.83;;
12707;SDS011;6418;50.824;4.718;2023-04-24T08:10:43;40.87;;;21.43;;
12707;SDS011;6418;50.824;4.718;2023-04-24T08:13:10;43.40;;;20.80;;
12707;SDS011;6418;50.824;4.718;2023-04-24T08:15:39;36.97;;;20.13;;
12707;SDS011;6418;50.824;4.718;2023-04-24T08:18:06;39.27;;;20.17;;
12707;SDS011;6418;50.824;4.718;2023-04-24T08:20:34;37.33;;;19.03;;
12707;SDS011;6418;50.824;4.718;2023-04-24T08:23:01;40.80;;;19.77;;
12707;SDS011;6418;50.824;4.718;2023-04-24T08:25:28;34.97;;;18.73;;
12707;SDS011;6418;50.824;4.718;2023-04-24T08:27:55;36.80;;;19.80;;
12707;SDS011;6418;50.824;4.718;2023-04-24T08:30:22;37.27;;;20.57;;
12707;SDS011;6418;50.824;4.718;2023-04-24T08:32:51;39.37;;;19.73;;
12707;SDS011;6418;50.824;4.718;2023-04-24T08:35:18;40.73;;;20.50;;
12707;SDS011;6418;50.824;4.718;2023-04-24T08:37:45;39.93;;;20.17;;
12707;SDS011;6418;50.824;4.718;2023-04-24T08:40:12;37.07;;;19.63;;
12707;SDS011;6418;50.824;4.718;2023-04-24T08:42:41;42.23;;;20.47;;
12707;SDS011;6418;50.824;4.718;2023-04-24T08:45:09;44.37;;;21.63;;
12707;SDS011;6418;50.824;4.718;2023-04-24T08:47:38;37.83;;;22.47;;
12707;SDS011;6418;50.824;4.718;2023-04-24T08:50:07;43.37;;;22.33;;
12707;SDS011;6418;50.824;4.718;2023-04-24T08:52:35;39.67;;;21.40;;
12707;SDS011;6418;50.824;4.718;2023-04-24T08:55:02;36.30;;;18.77;;
12707;SDS011;6418;50.824;4.718;2023-04-24T08:57:30;32.77;;;18.93;;
12707;SDS011;6418;50.824;4.718;2023-04-24T08:59:58;33.80;;;17.20;;
12707;SDS011;6418;50.824;4.718;2023-04-24T09:02:26;33.00;;;16.27;;
12707;SDS011;6418;50.824;4.718;2023-04-24T09:04:55;34.40;;;17.47;;
12707;SDS011;6418;50.824;4.718;2023-04-24T09:07:24;32.23;;;15.87;;
12707;SDS011;6418;50.824;4.718;2023-04-24T09:09:55;29.17;;;14.03;;
12707;SDS011;6418;50.824;4.718;2023-04-24T09:12:22;25.00;;;12.07;;
12707;SDS011;6418;50.824;4.718;2023-04-24T09:14:50;25.90;;;12.60;;
12707;SDS011;6418;50.824;4.718;2023-04-24T09:17:17;26.00;;;13.00;;
12707;SDS011;6418;50.824;4.718;2023-04-24T09:19:44;24.50;;;11.90;;
12707;SDS011;6418;50.824;4.718;2023-04-24T09:22:11;24.43;;;11.57;;
12707;SDS011;6418;50.824;4.718;2023-04-24T09:24:40;25.07;;;11.40;;
12707;SDS011;6418;50.824;4.718;2023-04-24T09:27:07;21.93;;;10.53;;
12707;SDS011;6418;50.824;4.718;2023-04-24T09:29:37;21.90;;;11.17;;
12707;SDS011;6418;50.824;4.718;2023-04-24T09:32:17;24.47;;;11.93;;
12707;SDS011;6418;50.824;4.718;2023-04-24T09:34:47;23.87;;;11.77;;
12707;SDS011;6418;50.824;4.718;2023-04-24T09:37:20;21.07;;;10.97;;
12707;SDS011;6418;50.824;4.718;2023-04-24T09:40:08;21.57;;;10.60;;
12707;SDS011;6418;50.824;4.718;2023-04-24T09:42:38;17.97;;;9.33;;
12707;SDS011;6418;50.824;4.718;2023-04-24T09:45:08;20.17;;;10.40;;
12707;SDS011;6418;50.824;4.718;2023-04-24T09:47:36;20.90;;;9.70;;
12707;SDS011;6418;50.824;4.718;2023-04-24T09:50:10;19.37;;;9.13;;
12707;SDS011;6418;50.824;4.718;2023-04-24T09:52:42;18.07;;;8.80;;
12707;SDS011;6418;50.824;4.718;2023-04-24T09:55:12;22.03;;;9.40;;
12707;SDS011;6418;50.824;4.718;2023-04-24T09:57:49;20.80;;;8.87;;
12707;SDS011;6418;50.824;4.718;2023-04-24T10:00:21;17.37;;;8.43;;
12707;SDS011;6418;50.824;4.718;2023-04-24T10:02:55;17.30;;;8.87;;
12707;SDS011;6418;50.824;4.718;2023-04-24T10:05:24;17.13;;;8.30;;
12707;SDS011;6418;50.824;4.718;2023-04-24T10:07:55;18.37;;;8.93;;
12707;SDS011;6418;50.824;4.718;2023-04-24T10:10:24;17.13;;;8.40;;
12707;SDS011;6418;50.824;4.718;2023-04-24T10:12:52;16.67;;;8.87;;
12707;SDS011;6418;50.824;4.718;2023-04-24T10:15:20;19.40;;;8.60;;
12707;SDS011;6418;50.824;4.718;2023-04-24T10:17:48;21.50;;;8.23;;
12707;SDS011;6418;50.824;4.718;2023-04-24T10:20:18;20.33;;;8.70;;
12707;SDS011;6418;50.824;4.718;2023-04-24T10:22:47;19.43;;;8.80;;
12707;SDS011;6418;50.824;4.718;2023-04-24T10:25:16;15.57;;;7.90;;
12707;SDS011;6418;50.824;4.718;2023-04-24T10:27:46;15.97;;;8.13;;
12707;SDS011;6418;50.824;4.718;2023-04-24T10:30:14;17.47;;;7.90;;
12707;SDS011;6418;50.824;4.718;2023-04-24T10:32:42;15.57;;;7.57;;
12707;SDS011;6418;50.824;4.718;2023-04-24T10:35:10;14.73;;;7.47;;
12707;SDS011;6418;50.824;4.718;2023-04-24T10:37:41;18.13;;;7.47;;
12707;SDS011;6418;50.824;4.718;2023-04-24T10:40:10;16.30;;;8.03;;
12707;SDS011;6418;50.824;4.718;2023-04-24T10:42:42;15.37;;;7.20;;
12707;SDS011;6418;50.824;4.718;2023-04-24T10:45:17;15.43;;;7.47;;
12707;SDS011;6418;50.824;4.718;2023-04-24T10:47:52;17.53;;;7.30;;
12707;SDS011;6418;50.824;4.718;2023-04-24T10:50:23;15.23;;;7.00;;
12707;SDS011;6418;50.824;4.718;2023-04-24T10:52:52;17.23;;;7.00;;
12707;SDS011;6418;50.824;4.718;2023-04-24T10:55:39;15.80;;;7.23;;
12707;SDS011;6418;50.824;4.718;2023-04-24T10:58:11;15.53;;;7.30;;
12707;SDS011;6418;50.824;4.718;2023-04-24T11:00:41;16.73;;;8.00;;
12707;SDS011;6418;50.824;4.718;2023-04-24T11:03:22;19.63;;;8.67;;
12707;SDS011;6418;50.824;4.718;2023-04-24T11:05:52;19.93;;;8.17;;
12707;SDS011;6418;50.824;4.718;2023-04-24T11:08:24;17.97;;;8.17;;
12707;SDS011;6418;50.824;4.718;2023-04-24T11:10:56;16.40;;;8.00;;
12707;SDS011;6418;50.824;4.718;2023-04-24T11:13:25;15.43;;;7.97;;
12707;SDS011;6418;50.824;4.718;2023-04-24T11:18:49;15.27;;;7.03;;
12707;SDS011;6418;50.824;4.718;2023-04-24T11:21:19;11.80;;;6.67;;
12707;SDS011;6418;50.824;4.718;2023-04-24T11:23:46;15.20;;;7.03;;
12707;SDS011;6418;50.824;4.718;2023-04-24T11:26:17;13.07;;;6.87;;
12707;SDS011;6418;50.824;4.718;2023-04-24T11:28:48;15.63;;;7.20;;
12707;SDS011;6418;50.824;4.718;2023-04-24T11:31:36;14.27;;;7.40;;
12707;SDS011;6418;50.824;4.718;2023-04-24T11:34:11;15.47;;;7.23;;
12707;SDS011;6418;50.824;4.718;2023-04-24T11:36:39;14.70;;;6.77;;
12707;SDS011;6418;50.824;4.718;2023-04-24T11:39:08;12.67;;;6.70;;
12707;SDS011;6418;50.824;4.718;2023-04-24T11:41:36;13.13;;;6.70;;
12707;SDS011;6418;50.824;4.718;2023-04-24T11:44:03;13.30;;;6.60;;
12707;SDS011;6418;50.824;4.718;2023-04-24T11:46:32;14.83;;;7.53;;
12707;SDS011;6418;50.824;4.718;2023-04-24T11:49:01;16.87;;;7.63;;
12707;SDS011;6418;50.824;4.718;2023-04-24T11:51:28;13.37;;;7.70;;
12707;SDS011;6418;50.824;4.718;2023-04-24T11:53:56;15.07;;;7.33;;
12707;SDS011;6418;50.824;4.718;2023-04-24T11:56:24;12.57;;;7.13;;
12707;SDS011;6418;50.824;4.718;2023-04-24T11:58:51;15.73;;;7.23;;
12707;SDS011;6418;50.824;4.718;2023-04-24T12:01:19;12.70;;;7.10;;
12707;SDS011;6418;50.824;4.718;2023-04-24T12:03:47;15.97;;;7.37;;
12707;SDS011;6418;50.824;4.718;2023-04-24T12:06:17;14.90;;;7.60;;
12707;SDS011;6418;50.824;4.718;2023-04-24T12:08:48;15.07;;;7.40;;
12707;SDS011;6418;50.824;4.718;2023-04-24T12:11:15;14.03;;;7.83;;
12707;SDS011;6418;50.824;4.718;2023-04-24T12:13:46;18.77;;;7.47;;
12707;SDS011;6418;50.824;4.718;2023-04-24T12:16:13;15.13;;;7.53;;
12707;SDS011;6418;50.824;4.718;2023-04-24T12:18:43;12.70;;;7.00;;
12707;SDS011;6418;50.824;4.718;2023-04-24T12:21:18;13.40;;;7.30;;
12707;SDS011;6418;50.824;4.718;2023-04-24T12:23:46;14.10;;;7.53;;
12707;SDS011;6418;50.824;4.718;2023-04-24T12:26:16;13.10;;;7.37;;
12707;SDS011;6418;50.824;4.718;2023-04-24T12:28:46;14.10;;;7.60;;
12707;SDS011;6418;50.824;4.718;2023-04-24T12:31:15;15.33;;;7.80;;
12707;SDS011;6418;50.824;4.718;2023-04-24T12:33:42;14.77;;;7.90;;
12707;SDS011;6418;50.824;4.718;2023-04-24T12:36:10;13.13;;;7.80;;
12707;SDS011;6418;50.824;4.718;2023-04-24T12:38:39;14.37;;;7.87;;
12707;SDS011;6418;50.824;4.718;2023-04-24T12:41:11;16.43;;;8.37;;
12707;SDS011;6418;50.824;4.718;2023-04-24T12:43:50;15.67;;;7.97;;
12707;SDS011;6418;50.824;4.718;2023-04-24T12:46:17;16.00;;;7.83;;
12707;SDS011;6418;50.824;4.718;2023-04-24T12:48:44;14.87;;;7.53;;
12707;SDS011;6418;50.824;4.718;2023-04-24T12:51:11;14.10;;;7.57;;
12707;SDS011;6418;50.824;4.718;2023-04-24T12:53:40;15.27;;;8.57;;
12707;SDS011;6418;50.824;4.718;2023-04-24T12:56:07;12.40;;;6.90;;
12707;SDS011;6418;50.824;4.718;2023-04-24T12:58:34;12.40;;;7.03;;
12707;SDS011;6418;50.824;4.718;2023-04-24T13:01:01;10.80;;;6.20;;
12707;SDS011;6418;50.824;4.718;2023-04-24T13:03:28;13.10;;;6.80;;
12707;SDS011;6418;50.824;4.718;2023-04-24T13:05:55;13.30;;;6.40;;
12707;SDS011;6418;50.824;4.718;2023-04-24T13:08:22;13.10;;;6.80;;
12707;SDS011;6418;50.824;4.718;2023-04-24T13:10:50;11.33;;;6.67;;
12707;SDS011;6418;50.824;4.718;2023-04-24T13:13:19;13.37;;;7.87;;
12707;SDS011;6418;50.824;4.718;2023-04-24T13:15:46;12.03;;;6.40;;
12707;SDS011;6418;50.824;4.718;2023-04-24T13:18:13;13.13;;;6.80;;
12707;SDS011;6418;50.824;4.718;2023-04-24T13:20:40;13.87;;;6.90;;
12707;SDS011;6418;50.824;4.718;2023-04-24T13:23:07;12.37;;;6.37;;
12707;SDS011;6418;50.824;4.718;2023-04-24T13:25:35;12.17;;;6.43;;
12707;SDS011;6418;50.824;4.718;2023-04-24T13:28:05;11.80;;;5.93;;
12707;SDS011;6418;50.824;4.718;2023-04-24T13:30:32;13.87;;;6.37;;
12707;SDS011;6418;50.824;4.718;2023-04-24T13:32:59;10.73;;;5.70;;
12707;SDS011;6418;50.824;4.718;2023-04-24T13:35:26;9.63;;;5.40;;
12707;SDS011;6418;50.824;4.718;2023-04-24T13:37:53;11.87;;;5.80;;
12707;SDS011;6418;50.824;4.718;2023-04-24T13:40:21;10.93;;;5.90;;
12707;SDS011;6418;50.824;4.718;2023-04-24T13:42:49;11.57;;;5.80;;
12707;SDS011;6418;50.824;4.718;2023-04-24T13:45:18;10.23;;;5.67;;
12707;SDS011;6418;50.824;4.718;2023-04-24T13:47:45;11.00;;;5.87;;
12707;SDS011;6418;50.824;4.718;2023-04-24T13:50:12;11.67;;;5.20;;
12707;SDS011;6418;50.824;4.718;2023-04-24T13:52:40;9.63;;;5.60;;
12707;SDS011;6418;50.824;4.718;2023-04-24T13:55:07;11.70;;;5.30;;
12707;SDS011;6418;50.824;4.718;2023-04-24T13:57:34;9.40;;;5.10;;
12707;SDS011;6418;50.824;4.718;2023-04-24T14:00:02;9.73;;;5.30;;
12707;SDS011;6418;50.824;4.718;2023-04-24T14:02:31;12.63;;;5.43;;
12707;SDS011;6418;50.824;4.718;2023-04-24T14:04:57;13.37;;;5.80;;
12707;SDS011;6418;50.824;4.718;2023-04-24T14:07:24;11.30;;;5.40;;
12707;SDS011;6418;50.824;4.718;2023-04-24T14:09:51;10.20;;;5.27;;
12707;SDS011;6418;50.824;4.718;2023-04-24T14:12:19;10.73;;;5.47;;
12707;SDS011;6418;50.824;4.718;2023-04-24T14:14:46;11.10;;;5.47;;
12707;SDS011;6418;50.824;4.718;2023-04-24T14:17:14;10.70;;;5.33;;
12707;SDS011;6418;50.824;4.718;2023-04-24T14:19:42;10.07;;;5.00;;
12707;SDS011;6418;50.824;4.718;2023-04-24T14:22:09;11.80;;;5.20;;
12707;SDS011;6418;50.824;4.718;2023-04-24T14:24:36;10.73;;;5.20;;
12707;SDS011;6418;50.824;4.718;2023-04-24T14:27:03;11.17;;;4.97;;
12707;SDS011;6418;50.824;4.718;2023-04-24T14:29:30;11.03;;;5.40;;
12707;SDS011;6418;50.824;4.718;2023-04-24T14:31:57;11.93;;;5.67;;
12707;SDS011;6418;50.824;4.718;2023-04-24T14:34:24;11.17;;;5.30;;
12707;SDS011;6418;50.824;4.718;2023-04-24T14:36:52;10.83;;;5.50;;
12707;SDS011;6418;50.824;4.718;2023-04-24T14:39:19;14.47;;;5.30;;
12707;SDS011;6418;50.824;4.718;2023-04-24T14:41:47;11.37;;;5.60;;
12707;SDS011;6418;50.824;4.718;2023-04-24T14:44:14;11.47;;;5.20;;
12707;SDS011;6418;50.824;4.718;2023-04-24T14:46:41;10.20;;;4.83;;